createdAt,value
2023-01-09T00:03:03.055Z,2.80
2023-01-09T00:08:06.548Z,2.70
2023-01-09T00:13:14.593Z,1.65
2023-01-09T00:18:17.745Z,2.70
2023-01-09T00:23:20.989Z,1.65
2023-01-09T00:28:24.059Z,2.95
2023-01-09T00:33:30.429Z,1.83
2023-01-09T00:38:33.878Z,2.22
2023-01-09T00:43:44.575Z,3.35
2023-01-09T00:48:49.845Z,2.75
2023-01-09T00:53:53.201Z,2.83
2023-01-09T00:58:59.392Z,2.75
2023-01-09T01:04:25.304Z,3.78
2023-01-09T01:09:28.950Z,3.13
2023-01-09T01:14:32.215Z,2.63
2023-01-09T01:19:35.798Z,3.97
2023-01-09T01:24:39.036Z,3.13
2023-01-09T01:29:48.998Z,3.00
2023-01-09T01:34:52.208Z,2.45
2023-01-09T01:39:55.468Z,4.88
2023-01-09T01:45:09.530Z,3.22
2023-01-09T01:50:31.124Z,2.40
2023-01-09T01:55:36.578Z,2.30
2023-01-09T02:00:44.047Z,2.97
2023-01-09T02:05:47.322Z,3.67
2023-01-09T02:10:51.175Z,0.98
2023-01-09T02:15:56.849Z,1.48
2023-01-09T02:21:20.066Z,1.40
2023-01-09T02:26:54.609Z,2.53
2023-01-09T02:32:15.995Z,3.88
2023-01-09T02:37:41.311Z,2.63
2023-01-09T02:43:46.370Z,3.33
2023-01-09T02:48:18.459Z,2.03
2023-01-09T02:53:33.520Z,2.88
2023-01-09T02:59:07.399Z,2.05
2023-01-09T03:04:44.573Z,3.53
2023-01-09T03:09:50.838Z,3.22
2023-01-09T03:14:58.529Z,4.45
2023-01-09T03:20:04.732Z,2.38
2023-01-09T03:25:08.184Z,4.72
2023-01-09T03:30:11.856Z,2.00
2023-01-09T03:35:14.998Z,3.85
2023-01-09T03:40:19.297Z,3.70
2023-01-09T03:45:22.390Z,3.42
2023-01-09T03:50:25.593Z,3.15
2023-01-09T03:55:28.907Z,3.70
2023-01-09T04:00:32.294Z,6.55
2023-01-09T04:05:36.017Z,4.60
2023-01-09T04:10:39.103Z,4.82
2023-01-09T04:15:42.338Z,4.57
2023-01-09T04:20:48.255Z,5.25
2023-01-09T04:25:51.300Z,7.03
2023-01-09T04:30:54.669Z,2.00
2023-01-09T04:35:57.734Z,2.67
2023-01-09T04:41:00.807Z,4.47
2023-01-09T04:46:03.946Z,4.88
2023-01-09T04:51:09.653Z,4.18
2023-01-09T04:56:12.725Z,1.33
2023-01-09T05:01:16.006Z,5.00
2023-01-09T05:06:19.264Z,4.22
2023-01-09T05:11:22.720Z,2.42
2023-01-09T05:16:26.011Z,2.22
2023-01-09T05:21:29.184Z,4.35
2023-01-09T05:26:32.330Z,4.53
2023-01-09T05:31:35.575Z,3.97
2023-01-09T05:36:38.768Z,3.80
2023-01-09T05:41:42.048Z,3.33
2023-01-09T05:52:02.823Z,4.55
2023-01-09T05:57:06.240Z,4.05
2023-01-09T06:02:09.716Z,3.88
2023-01-09T06:07:17.183Z,3.92
2023-01-09T06:12:22.602Z,3.97
2023-01-09T06:17:25.659Z,6.25
2023-01-09T06:22:28.685Z,5.90
2023-01-09T06:27:31.776Z,5.93
2023-01-09T06:32:34.905Z,6.13
2023-01-09T06:37:37.968Z,5.88
2023-01-09T06:48:05.771Z,3.95
2023-01-09T06:53:09.045Z,3.35
2023-01-09T06:58:12.483Z,5.40
2023-01-09T07:03:22.858Z,3.70
2023-01-09T07:08:26.106Z,4.28
2023-01-09T07:13:29.220Z,3.88
2023-01-09T07:18:32.339Z,1.80
2023-01-09T07:23:35.424Z,3.92
2023-01-09T07:28:38.519Z,5.28
2023-01-09T07:33:41.608Z,4.85
2023-01-09T07:38:44.761Z,5.07
2023-01-09T07:43:47.909Z,5.60
2023-01-09T07:48:51.041Z,4.07
2023-01-09T07:53:54.460Z,2.70
2023-01-09T07:58:57.533Z,5.80
2023-01-09T08:04:00.907Z,4.90
2023-01-09T08:14:26.594Z,7.43
2023-01-09T08:19:29.697Z,6.45
2023-01-09T08:24:33.237Z,4.97
2023-01-09T08:29:36.384Z,3.17
2023-01-09T08:34:39.493Z,5.03
2023-01-09T08:39:42.642Z,5.53
2023-01-09T08:45:04.404Z,4.05
2023-01-09T08:50:09.374Z,4.85
2023-01-09T08:55:12.478Z,3.70
2023-01-09T09:00:16.307Z,5.55
2023-01-09T09:05:20.100Z,2.65
2023-01-09T09:10:25.557Z,3.78
2023-01-09T09:15:29.262Z,4.97
2023-01-09T09:20:35.044Z,10.00
2023-01-09T09:25:38.789Z,7.10
2023-01-09T09:30:42.981Z,3.20
2023-01-09T09:35:46.237Z,5.47
2023-01-09T09:41:29.332Z,6.43
2023-01-09T09:46:42.348Z,3.97
2023-01-09T09:51:56.808Z,5.75
2023-01-09T10:02:28.929Z,3.17
2023-01-09T10:07:42.454Z,4.43
2023-01-09T10:12:56.269Z,5.18
2023-01-09T10:18:31.177Z,5.13
2023-01-09T10:24:05.783Z,8.43
2023-01-09T10:29:44.731Z,8.40
2023-01-09T10:35:11.755Z,6.55
2023-01-09T10:40:26.572Z,4.10
2023-01-09T10:45:44.774Z,6.30
2023-01-09T10:50:49.717Z,4.93
2023-01-09T10:56:02.419Z,4.95
2023-01-09T11:01:06.386Z,5.05
2023-01-09T11:06:22.327Z,2.15
2023-01-09T11:11:52.773Z,5.03
2023-01-09T11:16:58.706Z,5.18
2023-01-09T11:22:09.306Z,5.72
2023-01-09T11:27:24.017Z,3.80
2023-01-09T11:32:29.679Z,4.55
2023-01-09T11:37:33.872Z,5.22
2023-01-09T11:42:52.168Z,4.43
2023-01-09T11:47:55.300Z,6.03
2023-01-09T11:53:19.229Z,7.65
2023-01-09T11:58:22.538Z,4.10
2023-01-09T12:04:08.416Z,3.42
2023-01-09T12:09:55.389Z,2.47
2023-01-09T12:15:04.919Z,2.80
2023-01-09T12:20:14.497Z,3.00
2023-01-09T12:25:45.236Z,3.40
2023-01-09T12:30:48.267Z,3.83
2023-01-09T12:36:28.232Z,4.53
2023-01-09T12:41:34.133Z,3.17
2023-01-09T12:47:16.917Z,5.15
2023-01-09T12:52:26.384Z,3.42
2023-01-09T12:57:37.984Z,2.67
2023-01-09T13:03:12.091Z,4.32
2023-01-09T13:08:31.848Z,3.05
2023-01-09T13:13:51.121Z,2.33
2023-01-09T13:19:03.966Z,1.73
2023-01-09T13:24:22.713Z,1.67
2023-01-09T13:29:30.681Z,1.95
2023-01-09T13:34:36.508Z,2.72
2023-01-09T13:39:39.648Z,1.95
2023-01-09T13:44:43.357Z,2.13
2023-01-09T13:49:48.647Z,2.88
2023-01-09T13:55:00.410Z,2.47
2023-01-09T14:00:13.002Z,2.47
2023-01-09T14:05:37.303Z,3.17
2023-01-09T14:10:49.259Z,4.15
2023-01-09T14:16:02.028Z,2.00
2023-01-09T14:26:22.399Z,2.28
2023-01-09T14:31:30.915Z,2.90
2023-01-09T14:36:35.688Z,0.38
2023-01-09T14:42:08.313Z,1.45
2023-01-09T14:47:31.963Z,1.83
2023-01-09T14:53:08.445Z,0.98
2023-01-09T14:58:26.352Z,2.70
2023-01-09T15:03:45.456Z,1.67
2023-01-09T15:09:17.997Z,0.88
2023-01-09T15:14:30.985Z,2.13
2023-01-09T15:19:46.945Z,2.15
2023-01-09T15:24:50.512Z,0.82
2023-01-09T15:29:53.897Z,0.73
2023-01-09T15:34:58.371Z,2.30
2023-01-09T15:40:05.278Z,1.83
2023-01-09T15:45:19.151Z,3.10
2023-01-09T15:50:29.065Z,1.50
2023-01-09T15:55:35.465Z,1.35
2023-01-09T16:00:42.160Z,1.13
2023-01-09T16:05:50.048Z,1.20
2023-01-09T16:10:56.652Z,2.08
2023-01-09T16:16:02.054Z,1.85
2023-01-09T16:21:25.553Z,1.40
2023-01-09T16:26:31.217Z,2.10
2023-01-09T16:31:35.773Z,2.55
2023-01-09T16:36:38.939Z,1.38
2023-01-09T16:42:02.042Z,2.17
2023-01-09T16:47:07.630Z,3.88
2023-01-09T16:52:18.185Z,4.80
2023-01-09T16:57:21.342Z,2.25
2023-01-09T17:02:24.514Z,2.85
2023-01-09T17:07:28.307Z,1.25
2023-01-09T17:12:31.423Z,1.38
2023-01-09T17:17:34.532Z,0.30
2023-01-09T17:22:37.783Z,2.20
2023-01-09T17:28:01.870Z,3.33
2023-01-09T17:33:05.726Z,0.80
2023-01-09T17:38:15.653Z,2.50
2023-01-09T17:43:19.283Z,1.58
2023-01-09T17:48:22.899Z,1.20
2023-01-09T17:53:26.065Z,0.90
2023-01-09T17:58:30.649Z,0.68
2023-01-09T18:03:34.836Z,0.65
2023-01-09T18:08:38.461Z,1.00
2023-01-09T18:13:41.878Z,0.40
2023-01-09T18:18:45.616Z,0.22
2023-01-09T18:23:50.138Z,0.55
2023-01-09T18:28:59.933Z,0.55
2023-01-09T18:34:05.668Z,1.60
2023-01-09T18:39:09.122Z,0.65
2023-01-09T18:44:12.264Z,0.70
2023-01-09T18:49:15.977Z,2.45
2023-01-09T18:54:19.440Z,3.88
2023-01-09T18:59:22.548Z,2.05
2023-01-09T19:04:25.891Z,0.90
2023-01-09T19:09:32.194Z,2.40
2023-01-09T19:19:55.899Z,3.25
2023-01-09T19:24:59.104Z,2.90
2023-01-09T19:30:02.263Z,2.75
2023-01-09T19:35:07.088Z,2.75
2023-01-09T19:40:11.403Z,1.77
2023-01-09T19:45:15.727Z,2.42
2023-01-09T19:50:19.203Z,0.88
2023-01-09T19:55:22.539Z,0.77
2023-01-09T20:00:25.674Z,1.52
2023-01-09T20:05:28.769Z,0.50
2023-01-09T20:10:32.122Z,1.63
2023-01-09T20:15:35.454Z,0.20
2023-01-09T20:20:38.547Z,0.70
2023-01-09T20:25:41.722Z,1.55
2023-01-09T20:30:50.713Z,1.05
2023-01-09T20:35:53.776Z,0.45
2023-01-09T20:40:56.917Z,0.98
2023-01-09T20:46:07.139Z,2.60
2023-01-09T20:51:12.435Z,1.63
2023-01-09T20:56:26.756Z,0.50
2023-01-09T21:01:30.109Z,1.52
2023-01-09T21:11:50.167Z,1.05
2023-01-09T21:16:55.030Z,1.60
2023-01-09T21:21:58.439Z,2.72
2023-01-09T21:27:01.540Z,2.20
2023-01-09T21:32:04.634Z,0.93
2023-01-09T21:37:07.795Z,3.28
2023-01-09T21:42:29.281Z,2.22
2023-01-09T21:52:50.218Z,1.55
2023-01-09T21:57:56.873Z,3.10
2023-01-09T22:03:02.479Z,1.75
2023-01-09T22:08:05.730Z,0.82
2023-01-09T22:13:16.504Z,2.70
2023-01-09T22:18:19.590Z,1.02
2023-01-09T22:23:22.643Z,1.17
2023-01-09T22:28:25.792Z,1.25
2023-01-09T22:33:28.907Z,1.42
2023-01-09T22:38:32.040Z,0.40
2023-01-09T22:43:35.186Z,3.42
2023-01-09T22:48:38.830Z,3.15
2023-01-09T22:53:42.447Z,2.30
2023-01-09T22:58:49.735Z,2.05
2023-01-09T23:03:53.014Z,1.55
2023-01-09T23:08:56.090Z,1.27
2023-01-09T23:14:20.039Z,1.90
2023-01-09T23:19:23.141Z,1.52
2023-01-09T23:24:27.842Z,2.17
2023-01-09T23:29:31.203Z,2.30
2023-01-09T23:34:34.297Z,2.45
2023-01-09T23:39:37.430Z,2.15
2023-01-09T23:44:40.629Z,3.88
2023-01-09T23:49:43.697Z,0.57
2023-01-09T23:54:46.792Z,4.18
2023-01-09T23:59:49.941Z,1.23
